Search for airport 
image banner adimage banner ad
image banner ad

SVWI - Maiquetia

Located in Maiquetia, Venezuela

ICAO - , IATA -

Data provided by Airmate  

General information

Coordinates: N10°36'0" W66°58'60"
Elevation is feet MSL.
 
Rated:
View ratings: [VIEW]


View others Airports in Vargas

Operational data

Open for public use
Current time UTC:
Current local time:
METAR: SVMI 122302Z AUTO 08010KT NCD ///// Q1010
TAF: TAF SVMI 121600Z 1212/1312 09006KT 9999 SCT016 TX32/1218Z TN22/1208Z BECMG 1212/1216 07006KT 9999 SCT016
View NOTAMs / SUP AIP / TFR affecting this airport [VIEW]
Communications frequencies: [VIEW]

Runways:

Airport contact information

Address: Maiquetia Venezuela

Satellite view of SVWI